Alamance, North Carolina
Current Conditions -  °F | °C
As of 10:54 PM on Wednesday 26 Nov 2014 (Local Time) from KBUY Reporting Station
Haze Haze  
Wind Chill: 33°   Ceiling: 8500
Heat Index: 33°   Visibility: 3mi
Dew Point: 31°   Wind: 3mph
Humidity: 92%   Direction: 130°SE
Pressure: 30.03"   Gusts: NA
Location:  36.04°N, 79.49°W
Report Text: KBUY 270354Z AUTO 13003KT 3SM BR SCT055 SCT065 BKN085 01/M01 A3003 RMK AO2 SLP172 T00061006
Loading
Personal Weather Stations






























Interactive Weather Map New forecast layout! Learn more

10-Day Weather Forecast

Advertisements
Track Severe Weather on mobile